createdAt,value
2018-08-24T00:01:02.942Z,67.60
2018-08-24T00:03:31.774Z,67.42
2018-08-24T00:06:00.706Z,67.08
2018-08-24T00:08:29.558Z,67.64
2018-08-24T00:10:58.333Z,67.10
2018-08-24T00:13:27.158Z,67.71
2018-08-24T00:15:55.984Z,67.57
2018-08-24T00:18:24.755Z,67.58
2018-08-24T00:20:53.555Z,67.39
2018-08-24T00:23:22.345Z,67.66
2018-08-24T00:25:51.135Z,67.87
2018-08-24T00:28:20.324Z,68.18
2018-08-24T00:30:49.108Z,67.92
2018-08-24T00:33:17.902Z,67.93
2018-08-24T00:35:47.002Z,68.33
2018-08-24T00:38:15.846Z,68.36
2018-08-24T00:40:44.791Z,67.93
2018-08-24T00:43:13.884Z,68.37
2018-08-24T00:45:42.650Z,68.65
2018-08-24T00:48:11.420Z,68.63
2018-08-24T00:50:40.522Z,69.45
2018-08-24T00:53:09.344Z,70.84
2018-08-24T00:55:38.264Z,71.93
2018-08-24T00:58:07.198Z,74.22
2018-08-24T01:00:41.455Z,75.96
2018-08-24T01:03:11.347Z,78.29
2018-08-24T01:05:40.275Z,79.15
2018-08-24T01:08:09.244Z,79.99
2018-08-24T01:10:38.218Z,80.49
2018-08-24T01:13:12.644Z,80.50
2018-08-24T01:16:01.427Z,81.44
2018-08-24T01:18:35.824Z,82.21
2018-08-24T01:21:04.835Z,83.84
2018-08-24T01:23:34.615Z,86.95
2018-08-24T01:26:03.665Z,87.22
2018-08-24T01:28:32.799Z,89.25
2018-08-24T01:31:03.490Z,89.08
2018-08-24T01:33:33.045Z,88.65
2018-08-24T01:36:02.187Z,88.38
2018-08-24T01:38:31.101Z,88.64
2018-08-24T01:40:59.880Z,88.75
2018-08-24T01:43:28.806Z,88.93
2018-08-24T01:46:02.982Z,89.65
2018-08-24T01:48:32.414Z,88.74
2018-08-24T01:51:01.168Z,88.81
2018-08-24T01:53:29.920Z,88.94
2018-08-24T01:55:59.014Z,88.74
2018-08-24T01:58:27.759Z,87.18
2018-08-24T02:00:56.574Z,85.85
2018-08-24T02:03:25.481Z,85.91
2018-08-24T02:05:59.804Z,85.17
2018-08-24T02:08:28.760Z,86.00
2018-08-24T02:10:57.596Z,85.60
2018-08-24T02:13:32.164Z,85.77
2018-08-24T02:16:00.916Z,85.77
2018-08-24T02:18:35.415Z,85.78
2018-08-24T02:21:09.920Z,86.66
2018-08-24T02:23:38.991Z,86.60
2018-08-24T02:26:07.735Z,86.88
2018-08-24T02:28:36.536Z,87.64
2018-08-24T02:31:06.064Z,87.58
2018-08-24T02:33:37.749Z,87.10
2018-08-24T02:36:07.199Z,87.86
2018-08-24T02:38:36.054Z,86.78
2018-08-24T02:41:05.031Z,86.32
2018-08-24T02:43:34.179Z,85.86
2018-08-24T02:46:03.034Z,85.86
2018-08-24T02:48:31.784Z,87.11
2018-08-24T02:51:00.777Z,85.98
2018-08-24T02:53:29.562Z,86.62
2018-08-24T02:55:58.372Z,86.56
2018-08-24T02:58:28.456Z,87.45
2018-08-24T03:00:57.219Z,87.33
2018-08-24T03:03:25.979Z,87.26
2018-08-24T03:05:55.125Z,86.54
2018-08-24T03:08:29.936Z,86.58
2018-08-24T03:11:05.148Z,85.55
2018-08-24T03:13:37.967Z,85.16
2018-08-24T03:16:07.670Z,85.92
2018-08-24T03:18:36.524Z,85.23
2018-08-24T03:21:11.674Z,84.84
2018-08-24T03:23:46.607Z,85.14
2018-08-24T03:26:21.636Z,85.13
2018-08-24T03:28:50.641Z,85.29
2018-08-24T03:31:19.430Z,85.60
2018-08-24T03:33:48.325Z,85.21
2018-08-24T03:36:17.112Z,85.44
2018-08-24T03:38:45.883Z,85.37
2018-08-24T03:41:14.834Z,85.89
2018-08-24T03:43:43.599Z,86.37
2018-08-24T03:46:12.351Z,86.43
2018-08-24T03:48:41.827Z,85.85
2018-08-24T03:51:10.584Z,84.99
2018-08-24T03:53:39.416Z,85.56
2018-08-24T03:56:08.519Z,85.49
2018-08-24T03:58:37.273Z,85.33
2018-08-24T04:01:06.258Z,85.57
2018-08-24T04:03:35.324Z,86.45
2018-08-24T04:06:04.163Z,85.66
2018-08-24T04:08:32.935Z,85.49
2018-08-24T04:11:01.998Z,86.20
2018-08-24T04:13:30.764Z,85.97
2018-08-24T04:15:59.526Z,85.42
2018-08-24T04:18:28.504Z,85.48
2018-08-24T04:20:57.295Z,84.96
2018-08-24T04:23:26.033Z,85.06
2018-08-24T04:25:55.040Z,84.91
2018-08-24T04:28:23.775Z,84.37
2018-08-24T04:30:52.635Z,84.34
2018-08-24T04:33:21.596Z,83.91
2018-08-24T04:35:50.341Z,83.69
2018-08-24T04:38:19.192Z,83.44
2018-08-24T04:40:48.090Z,83.77
2018-08-24T04:43:17.000Z,83.84
2018-08-24T04:45:45.788Z,82.96
2018-08-24T04:48:14.808Z,83.04
2018-08-24T04:50:43.579Z,82.91
2018-08-24T04:53:12.327Z,82.52
2018-08-24T04:55:41.542Z,83.28
2018-08-24T04:58:10.303Z,82.97
2018-08-24T05:00:39.119Z,83.74
2018-08-24T05:03:08.431Z,83.59
2018-08-24T05:05:37.194Z,83.66
2018-08-24T05:08:06.008Z,83.36
2018-08-24T05:10:34.797Z,84.05
2018-08-24T05:13:03.938Z,83.61
2018-08-24T05:15:33.071Z,83.43
2018-08-24T05:18:02.136Z,83.12
2018-08-24T05:20:31.088Z,82.56
2018-08-24T05:22:59.872Z,82.15
2018-08-24T05:25:28.663Z,81.49
2018-08-24T05:27:57.623Z,81.40
2018-08-24T05:30:26.373Z,81.79
2018-08-24T05:32:55.567Z,80.87
2018-08-24T05:35:24.516Z,81.85
2018-08-24T05:37:53.257Z,80.83
2018-08-24T05:40:22.014Z,80.67
2018-08-24T05:42:51.115Z,81.18
2018-08-24T05:45:19.963Z,80.85
2018-08-24T05:47:48.776Z,81.43
2018-08-24T05:50:17.856Z,80.47
2018-08-24T05:52:46.635Z,81.09
2018-08-24T05:55:15.400Z,81.54
2018-08-24T05:57:44.398Z,80.25
2018-08-24T06:00:14.304Z,80.55
2018-08-24T06:02:43.175Z,81.59
2018-08-24T06:05:12.068Z,80.12
2018-08-24T06:07:40.903Z,80.11
2018-08-24T06:10:09.718Z,79.77
2018-08-24T06:12:38.845Z,79.98
2018-08-24T06:15:07.692Z,78.79
2018-08-24T06:17:42.128Z,79.32
2018-08-24T06:20:10.923Z,78.80
2018-08-24T06:22:40.103Z,78.61
2018-08-24T06:25:09.078Z,78.66
2018-08-24T06:27:38.063Z,78.57
2018-08-24T06:30:07.381Z,78.72
2018-08-24T06:32:36.436Z,77.96
2018-08-24T06:35:05.648Z,78.47
2018-08-24T06:37:34.415Z,79.01
2018-08-24T06:40:03.436Z,78.17
2018-08-24T06:42:32.207Z,78.95
2018-08-24T06:45:07.560Z,78.06
2018-08-24T06:47:36.364Z,78.70
2018-08-24T06:50:05.404Z,78.37
2018-08-24T06:52:34.199Z,77.61
2018-08-24T06:55:03.144Z,78.06
2018-08-24T06:57:31.916Z,77.82
2018-08-24T07:00:00.769Z,77.12
2018-08-24T07:02:29.535Z,77.81
2018-08-24T07:05:00.189Z,77.11
2018-08-24T07:07:28.996Z,77.57
2018-08-24T07:09:57.809Z,76.74
2018-08-24T07:12:26.717Z,77.96
2018-08-24T07:14:55.529Z,75.84
2018-08-24T07:17:29.853Z,75.77
2018-08-24T07:19:58.873Z,74.93
2018-08-24T07:22:27.634Z,74.89
2018-08-24T07:24:56.443Z,73.85
2018-08-24T07:27:25.221Z,73.44
2018-08-24T07:29:54.022Z,73.80
2018-08-24T07:32:22.869Z,73.25
2018-08-24T07:34:51.979Z,73.54
2018-08-24T07:37:20.900Z,72.45
2018-08-24T07:39:49.794Z,73.11
2018-08-24T07:42:18.559Z,72.64
2018-08-24T07:44:51.548Z,73.91
2018-08-24T07:47:21.267Z,72.53
2018-08-24T07:49:50.201Z,73.29
2018-08-24T07:52:19.002Z,73.20
2018-08-24T07:54:48.040Z,73.53
2018-08-24T07:57:17.124Z,76.11
2018-08-24T07:59:45.989Z,76.50
2018-08-24T08:02:14.854Z,77.32
2018-08-24T08:04:43.644Z,77.57
2018-08-24T08:07:12.700Z,77.53
2018-08-24T08:09:41.500Z,77.99
2018-08-24T08:12:10.559Z,78.25
2018-08-24T08:14:43.921Z,77.56
2018-08-24T08:17:13.895Z,77.69
2018-08-24T08:19:42.680Z,77.64
2018-08-24T08:22:11.439Z,77.13
2018-08-24T08:24:40.546Z,77.54
2018-08-24T08:27:09.361Z,77.70
2018-08-24T08:29:43.919Z,77.80
2018-08-24T08:32:12.702Z,78.55
2018-08-24T08:34:47.451Z,77.98
2018-08-24T08:37:16.255Z,79.32
2018-08-24T08:39:45.090Z,78.69
2018-08-24T08:42:14.246Z,78.36
2018-08-24T08:44:43.032Z,79.96
2018-08-24T08:47:11.853Z,79.36
2018-08-24T08:49:40.666Z,79.63
2018-08-24T08:52:09.928Z,79.34
2018-08-24T08:54:39.074Z,78.58
2018-08-24T08:57:07.866Z,79.41
2018-08-24T08:59:36.696Z,78.17
2018-08-24T09:02:08.179Z,78.58
2018-08-24T09:04:37.299Z,79.37
2018-08-24T09:07:06.356Z,77.97
2018-08-24T09:09:35.395Z,77.55
2018-08-24T09:12:04.829Z,77.48
2018-08-24T09:14:33.794Z,77.15
2018-08-24T09:17:08.307Z,76.23
2018-08-24T09:19:42.767Z,74.97
2018-08-24T09:22:17.088Z,73.98
2018-08-24T09:24:51.510Z,71.74
2018-08-24T09:27:25.847Z,71.47
2018-08-24T09:29:56.404Z,68.69
2018-08-24T09:32:25.181Z,67.42
2018-08-24T09:34:53.988Z,66.50
2018-08-24T09:37:28.331Z,66.89
2018-08-24T09:39:57.119Z,64.11
2018-08-24T09:42:25.922Z,66.35
2018-08-24T09:44:54.700Z,63.68
2018-08-24T09:47:29.099Z,62.61
2018-08-24T09:50:04.202Z,61.62
2018-08-24T09:52:32.966Z,61.91
2018-08-24T09:55:01.733Z,61.96
2018-08-24T09:57:30.524Z,63.20
2018-08-24T09:59:59.349Z,61.38
2018-08-24T10:02:33.898Z,61.11
2018-08-24T10:05:08.262Z,61.71
2018-08-24T10:07:42.782Z,61.14
2018-08-24T10:10:11.924Z,60.06
2018-08-24T10:12:40.763Z,60.65
2018-08-24T10:15:10.012Z,58.76
2018-08-24T10:17:38.825Z,59.06
2018-08-24T10:20:07.715Z,59.06
2018-08-24T10:22:36.732Z,57.46
2018-08-24T10:25:05.647Z,56.57
2018-08-24T10:27:34.471Z,56.01
2018-08-24T10:30:03.341Z,56.13
2018-08-24T10:32:32.408Z,56.61
2018-08-24T10:35:01.241Z,54.28
2018-08-24T10:37:30.008Z,53.75
2018-08-24T10:39:58.813Z,53.45
2018-08-24T10:42:27.559Z,52.39
2018-08-24T10:44:56.377Z,51.63
2018-08-24T10:47:25.252Z,49.29
2018-08-24T10:49:54.078Z,49.31
2018-08-24T10:52:22.857Z,47.58
2018-08-24T10:54:51.668Z,48.21
2018-08-24T10:57:20.470Z,44.21
2018-08-24T10:59:49.581Z,45.86
2018-08-24T11:02:18.359Z,47.59
2018-08-24T11:04:47.186Z,46.54
2018-08-24T11:07:16.085Z,46.09
2018-08-24T11:09:44.828Z,45.75
2018-08-24T11:12:13.761Z,45.59
2018-08-24T11:14:42.707Z,44.93
2018-08-24T11:17:11.455Z,44.75
2018-08-24T11:19:40.271Z,45.37
2018-08-24T11:22:09.036Z,43.33
2018-08-24T11:24:37.936Z,42.21
2018-08-24T11:27:06.703Z,42.67
2018-08-24T11:29:35.515Z,41.06
2018-08-24T11:32:04.311Z,42.11
2018-08-24T11:34:33.131Z,42.81
2018-08-24T11:37:02.025Z,44.45
2018-08-24T11:39:30.804Z,44.41
2018-08-24T11:41:59.674Z,42.53
2018-08-24T11:44:28.786Z,42.63
2018-08-24T11:46:57.873Z,41.48
2018-08-24T11:49:26.724Z,41.80
2018-08-24T11:51:55.583Z,41.31
2018-08-24T11:54:24.470Z,41.06
2018-08-24T11:56:53.208Z,40.82
2018-08-24T11:59:22.034Z,42.53
2018-08-24T12:01:50.932Z,42.70
2018-08-24T12:04:19.736Z,42.27
2018-08-24T12:06:48.498Z,42.92
2018-08-24T12:09:19.259Z,42.43
2018-08-24T12:11:49.936Z,41.95
2018-08-24T12:14:18.847Z,43.13
2018-08-24T12:16:47.811Z,43.04
2018-08-24T12:19:16.571Z,42.77
2018-08-24T12:21:45.378Z,43.72
2018-08-24T12:24:14.508Z,44.46
2018-08-24T12:26:43.779Z,43.88
2018-08-24T12:29:12.636Z,42.21
2018-08-24T12:31:41.513Z,42.09
2018-08-24T12:34:10.277Z,41.74
2018-08-24T12:36:39.427Z,42.03
2018-08-24T12:39:10.391Z,42.73
2018-08-24T12:41:39.251Z,42.69
2018-08-24T12:44:08.648Z,43.99
2018-08-24T12:46:37.831Z,43.65
2018-08-24T12:49:06.677Z,43.26
2018-08-24T12:51:35.874Z,43.85
2018-08-24T12:54:04.803Z,43.43
2018-08-24T12:56:33.629Z,41.76
2018-08-24T12:59:03.039Z,42.06
2018-08-24T13:01:31.975Z,43.14
2018-08-24T13:04:01.068Z,44.30
2018-08-24T13:06:30.287Z,46.85
2018-08-24T13:08:59.147Z,46.75
2018-08-24T13:11:28.015Z,47.90
2018-08-24T13:13:57.209Z,48.11
2018-08-24T13:16:26.027Z,45.46
2018-08-24T13:18:54.838Z,46.84
2018-08-24T13:21:24.014Z,46.70
2018-08-24T13:23:52.764Z,46.90
2018-08-24T13:26:21.556Z,47.88
2018-08-24T13:28:50.538Z,47.88
2018-08-24T13:31:19.398Z,49.83
2018-08-24T13:33:48.362Z,49.87
2018-08-24T13:36:17.268Z,49.90
2018-08-24T13:38:46.241Z,51.82
2018-08-24T13:41:15.060Z,51.82
2018-08-24T13:43:44.627Z,51.79
2018-08-24T13:46:17.903Z,53.10
2018-08-24T13:48:47.333Z,54.67
2018-08-24T13:51:16.536Z,54.73
2018-08-24T13:53:45.660Z,55.55
2018-08-24T13:56:15.742Z,54.45
2018-08-24T13:58:44.491Z,55.52
2018-08-24T14:01:14.344Z,56.41
2018-08-24T14:03:43.308Z,55.75
2018-08-24T14:06:12.055Z,56.70
2018-08-24T14:08:40.809Z,56.64
2018-08-24T14:11:09.928Z,57.35
2018-08-24T14:13:38.738Z,56.72
2018-08-24T14:16:07.899Z,57.33
2018-08-24T14:18:36.977Z,59.15
2018-08-24T14:21:05.896Z,59.65
2018-08-24T14:23:34.754Z,60.04
2018-08-24T14:26:03.754Z,59.35
2018-08-24T14:28:32.599Z,59.21
2018-08-24T14:31:01.385Z,55.09
2018-08-24T14:33:30.559Z,52.33
2018-08-24T14:35:59.348Z,50.28
2018-08-24T14:38:28.123Z,49.42
2018-08-24T14:40:57.060Z,49.09
2018-08-24T14:43:25.844Z,48.33
2018-08-24T14:45:54.630Z,47.32
2018-08-24T14:48:23.423Z,46.89
2018-08-24T14:50:52.241Z,47.66
2018-08-24T14:53:21.104Z,47.21
2018-08-24T14:55:50.027Z,47.44
2018-08-24T14:58:18.874Z,47.92
2018-08-24T15:00:47.957Z,46.71
2018-08-24T15:03:16.723Z,47.05
2018-08-24T15:05:46.788Z,44.97
2018-08-24T15:08:15.583Z,45.16
2018-08-24T15:10:45.607Z,45.40
2018-08-24T15:13:14.737Z,44.08
2018-08-24T15:15:43.499Z,44.94
2018-08-24T15:18:12.408Z,44.24
2018-08-24T15:20:41.177Z,45.34
2018-08-24T15:23:10.103Z,45.24
2018-08-24T15:25:38.812Z,45.73
2018-08-24T15:28:07.637Z,45.52
2018-08-24T15:30:36.453Z,43.81
2018-08-24T15:33:06.507Z,42.40
2018-08-24T15:35:35.261Z,39.09
2018-08-24T15:38:04.085Z,39.37
2018-08-24T15:40:32.942Z,39.07
2018-08-24T15:43:01.803Z,38.29
2018-08-24T15:45:31.479Z,38.42
2018-08-24T15:48:00.384Z,38.85
2018-08-24T15:50:29.225Z,39.61
2018-08-24T15:52:58.064Z,39.15
2018-08-24T15:55:26.932Z,38.35
2018-08-24T15:57:55.717Z,39.86
2018-08-24T16:00:24.534Z,40.10
2018-08-24T16:02:53.353Z,40.10
2018-08-24T16:05:22.127Z,40.43
2018-08-24T16:07:51.013Z,40.45
2018-08-24T16:10:19.798Z,41.82
2018-08-24T16:12:48.665Z,42.36
2018-08-24T16:15:17.469Z,42.46
2018-08-24T16:18:21.407Z,42.35
2018-08-24T16:20:50.734Z,43.59
2018-08-24T16:23:19.631Z,43.53
2018-08-24T16:25:48.815Z,43.92
2018-08-24T16:28:18.166Z,44.68
2018-08-24T16:30:46.951Z,44.02
2018-08-24T16:33:16.348Z,43.86
2018-08-24T16:35:45.143Z,43.51
2018-08-24T16:38:14.234Z,43.12
2018-08-24T16:40:43.001Z,43.49
2018-08-24T16:43:12.038Z,44.45
2018-08-24T16:45:44.751Z,43.76
2018-08-24T16:48:14.351Z,43.39
2018-08-24T16:50:43.095Z,44.59
2018-08-24T16:53:11.869Z,44.89
2018-08-24T16:55:40.782Z,44.90
2018-08-24T16:58:09.798Z,45.47
2018-08-24T17:00:38.611Z,46.04
2018-08-24T17:03:07.361Z,46.07
2018-08-24T17:05:36.167Z,46.46
2018-08-24T17:08:05.571Z,46.48
2018-08-24T17:10:34.451Z,47.21
2018-08-24T17:13:03.272Z,47.53
2018-08-24T17:15:32.149Z,47.19
2018-08-24T17:18:01.179Z,47.79
2018-08-24T17:20:30.266Z,48.02
2018-08-24T17:22:59.076Z,47.84
2018-08-24T17:25:27.900Z,48.61
2018-08-24T17:27:56.671Z,48.47
2018-08-24T17:30:25.530Z,48.84
2018-08-24T17:32:54.360Z,49.48
2018-08-24T17:35:23.227Z,49.35
2018-08-24T17:37:51.999Z,49.45
2018-08-24T17:40:21.031Z,49.86
2018-08-24T17:42:49.864Z,50.30
2018-08-24T17:45:18.630Z,51.17
2018-08-24T17:47:48.037Z,58.83
2018-08-24T17:50:16.771Z,62.63
2018-08-24T17:52:45.625Z,66.69
2018-08-24T17:55:14.396Z,68.65
2018-08-24T17:57:43.947Z,71.98
2018-08-24T18:00:13.027Z,71.69
2018-08-24T18:02:41.816Z,70.21
2018-08-24T18:05:10.939Z,70.08
2018-08-24T18:07:39.723Z,71.42
2018-08-24T18:10:08.804Z,71.85
2018-08-24T18:12:38.562Z,76.13
2018-08-24T18:15:07.516Z,74.83
2018-08-24T18:17:36.365Z,78.45
2018-08-24T18:20:05.236Z,80.21
2018-08-24T18:22:34.105Z,82.71
2018-08-24T18:25:03.084Z,84.39
2018-08-24T18:27:31.875Z,82.66
2018-08-24T18:30:00.717Z,82.10
2018-08-24T18:32:29.527Z,84.29
2018-08-24T18:34:58.557Z,84.10
2018-08-24T18:37:27.632Z,84.45
2018-08-24T18:39:56.422Z,81.51
2018-08-24T18:42:25.282Z,80.31
2018-08-24T18:44:54.165Z,81.18
2018-08-24T18:47:23.678Z,79.79
2018-08-24T18:49:52.590Z,79.34
2018-08-24T18:52:22.240Z,79.28
2018-08-24T18:54:51.479Z,79.68
2018-08-24T18:57:20.667Z,78.46
2018-08-24T18:59:49.493Z,79.08
2018-08-24T19:02:18.783Z,80.75
2018-08-24T19:04:48.107Z,79.07
2018-08-24T19:07:16.834Z,78.58
2018-08-24T19:09:45.639Z,78.53
2018-08-24T19:12:20.563Z,79.08
2018-08-24T19:14:49.436Z,78.81
2018-08-24T19:17:23.727Z,79.87
2018-08-24T19:19:58.669Z,78.72
2018-08-24T19:22:27.869Z,80.31
2018-08-24T19:24:56.739Z,81.87
2018-08-24T19:28:33.326Z,82.16
2018-08-24T19:31:04.759Z,79.81
2018-08-24T19:33:33.755Z,80.03
2018-08-24T19:36:02.659Z,79.44
2018-08-24T19:38:31.732Z,78.57
2018-08-24T19:41:06.181Z,79.50
2018-08-24T19:43:35.428Z,79.29
2018-08-24T19:46:04.383Z,79.09
2018-08-24T19:48:38.928Z,78.90
2018-08-24T19:51:07.752Z,79.57
2018-08-24T19:53:36.511Z,80.06
2018-08-24T19:56:05.535Z,79.33
2018-08-24T19:58:39.840Z,79.29
2018-08-24T20:01:08.919Z,79.39
2018-08-24T20:03:37.669Z,78.57
2018-08-24T20:06:12.451Z,78.56
2018-08-24T20:08:46.619Z,78.18
2018-08-24T20:11:15.756Z,77.72
2018-08-24T20:13:44.572Z,77.26
2018-08-24T20:16:19.323Z,76.66
2018-08-24T20:18:48.083Z,77.84
2018-08-24T20:21:16.851Z,76.74
2018-08-24T20:23:45.950Z,77.24
2018-08-24T20:26:14.782Z,77.42
2018-08-24T20:28:43.518Z,76.94
2018-08-24T20:31:13.312Z,76.39
2018-08-24T20:33:43.927Z,75.92
2018-08-24T20:36:12.703Z,75.67
2018-08-24T20:38:41.657Z,76.01
2018-08-24T20:41:10.720Z,75.38
2018-08-24T20:43:39.516Z,75.62
2018-08-24T20:46:08.630Z,74.62
2018-08-24T20:48:37.410Z,75.36
2018-08-24T20:51:06.383Z,75.69
2018-08-24T20:53:35.520Z,74.93
2018-08-24T20:56:04.333Z,75.74
2018-08-24T20:58:33.117Z,75.57
2018-08-24T21:01:02.205Z,76.34
2018-08-24T21:03:31.043Z,76.43
2018-08-24T21:05:59.833Z,76.33
2018-08-24T21:08:28.884Z,75.99
2018-08-24T21:10:57.657Z,75.54
2018-08-24T21:13:26.427Z,75.22
2018-08-24T21:15:55.544Z,75.83
2018-08-24T21:18:24.314Z,76.88
2018-08-24T21:20:53.171Z,79.44
2018-08-24T21:23:22.060Z,79.48
2018-08-24T21:25:50.841Z,79.86
2018-08-24T21:28:19.675Z,77.77
2018-08-24T21:30:48.596Z,76.59
2018-08-24T21:33:17.352Z,77.81
2018-08-24T21:35:46.139Z,78.86
2018-08-24T21:38:15.274Z,77.86
2018-08-24T21:40:44.332Z,79.88
2018-08-24T21:43:13.092Z,78.73
2018-08-24T21:45:47.031Z,78.12
2018-08-24T21:48:15.831Z,77.78
2018-08-24T21:50:44.631Z,76.92
2018-08-24T21:53:13.824Z,76.94
2018-08-24T21:55:42.619Z,77.74
2018-08-24T21:58:11.625Z,78.29
2018-08-24T22:00:41.708Z,78.04
2018-08-24T22:03:12.103Z,79.41
2018-08-24T22:05:41.328Z,79.33
2018-08-24T22:08:10.979Z,79.07
2018-08-24T22:10:39.774Z,78.55
2018-08-24T22:13:08.580Z,80.17
2018-08-24T22:15:37.769Z,80.46
2018-08-24T22:18:06.639Z,79.55
2018-08-24T22:20:35.430Z,79.21
2018-08-24T22:23:04.849Z,80.21
2018-08-24T22:25:33.668Z,80.00
2018-08-24T22:28:02.492Z,80.25
2018-08-24T22:30:31.732Z,79.99
2018-08-24T22:33:00.467Z,79.30
2018-08-24T22:35:29.299Z,79.44
2018-08-24T22:37:58.398Z,79.52
2018-08-24T22:40:27.231Z,78.71
2018-08-24T22:42:56.082Z,80.30
2018-08-24T22:45:25.293Z,79.83
2018-08-24T22:47:54.144Z,80.55
2018-08-24T22:50:22.974Z,82.56
2018-08-24T22:52:52.070Z,81.93
2018-08-24T22:55:20.921Z,82.22
2018-08-24T22:57:50.012Z,81.60
2018-08-24T23:00:19.073Z,82.40
2018-08-24T23:02:47.864Z,81.82
2018-08-24T23:05:16.604Z,81.88
2018-08-24T23:07:45.878Z,83.30
2018-08-24T23:10:14.651Z,82.03
2018-08-24T23:12:43.401Z,81.26
2018-08-24T23:15:12.689Z,79.59
2018-08-24T23:17:41.539Z,81.80
2018-08-24T23:20:10.373Z,80.20
2018-08-24T23:22:39.488Z,81.16
2018-08-24T23:25:08.335Z,82.98
2018-08-24T23:27:37.085Z,83.75
2018-08-24T23:30:06.977Z,83.69
2018-08-24T23:32:35.855Z,83.83
2018-08-24T23:35:04.764Z,84.60
2018-08-24T23:37:33.689Z,87.25
2018-08-24T23:40:02.504Z,86.79
2018-08-24T23:42:31.329Z,86.26
2018-08-24T23:45:06.779Z,87.60
2018-08-24T23:47:35.541Z,85.09
2018-08-24T23:50:05.021Z,85.20
2018-08-24T23:52:33.925Z,86.96
2018-08-24T23:55:02.776Z,86.45
2018-08-24T23:57:31.592Z,85.06
